createdAt,value
2023-03-17T00:01:51.667Z,66.56
2023-03-17T00:04:19.721Z,66.34
2023-03-17T00:06:46.734Z,66.85
2023-03-17T00:09:15.111Z,66.89
2023-03-17T00:11:43.115Z,66.88
2023-03-17T00:14:10.342Z,66.83
2023-03-17T00:16:39.266Z,66.51
2023-03-17T00:19:06.874Z,67.05
2023-03-17T00:21:35.964Z,66.86
2023-03-17T00:24:03.376Z,67.31
2023-03-17T00:26:30.109Z,68.12
2023-03-17T00:28:57.052Z,67.99
2023-03-17T00:31:29.867Z,68.21
2023-03-17T00:33:57.289Z,68.03
2023-03-17T00:36:26.681Z,67.82
2023-03-17T00:38:53.381Z,67.85
2023-03-17T00:41:20.419Z,68.06
2023-03-17T00:43:47.296Z,68.16
2023-03-17T00:46:22.073Z,68.17
2023-03-17T00:48:48.927Z,67.61
2023-03-17T00:51:16.655Z,68.25
2023-03-17T00:53:44.212Z,67.92
2023-03-17T00:56:16.087Z,67.75
2023-03-17T00:58:43.196Z,68.14
2023-03-17T01:01:10.217Z,68.59
2023-03-17T01:03:37.432Z,68.55
2023-03-17T01:06:06.005Z,69.03
2023-03-17T01:08:32.901Z,68.86
2023-03-17T01:10:59.788Z,69.22
2023-03-17T01:13:26.550Z,69.81
2023-03-17T01:15:53.335Z,68.96
2023-03-17T01:18:21.625Z,69.15
2023-03-17T01:20:48.956Z,69.17
2023-03-17T01:23:15.774Z,68.91
2023-03-17T01:25:43.440Z,69.05
2023-03-17T01:28:18.244Z,69.04
2023-03-17T01:30:45.518Z,69.84
2023-03-17T01:33:13.307Z,69.64
2023-03-17T01:35:41.552Z,69.88
2023-03-17T01:38:08.802Z,69.89
2023-03-17T01:40:44.346Z,70.11
2023-03-17T01:43:17.496Z,69.62
2023-03-17T01:46:21.612Z,69.80
2023-03-17T01:49:15.746Z,70.25
2023-03-17T01:52:00.479Z,70.19
2023-03-17T01:54:29.910Z,71.09
2023-03-17T01:57:01.285Z,71.36
2023-03-17T01:59:33.955Z,71.46
2023-03-17T02:02:07.684Z,71.15
2023-03-17T02:04:34.822Z,71.58
2023-03-17T02:07:02.848Z,71.77
2023-03-17T02:09:29.733Z,71.75
2023-03-17T02:11:56.797Z,72.04
2023-03-17T02:14:23.926Z,71.90
2023-03-17T02:16:50.702Z,70.81
2023-03-17T02:19:17.418Z,71.17
2023-03-17T02:21:46.221Z,71.40
2023-03-17T02:24:17.797Z,71.16
2023-03-17T02:26:46.290Z,71.76
2023-03-17T02:29:13.250Z,71.64
2023-03-17T02:31:40.052Z,71.63
2023-03-17T02:34:07.032Z,71.42
2023-03-17T02:36:33.986Z,71.50
2023-03-17T02:39:01.733Z,72.02
2023-03-17T02:41:28.902Z,71.69
2023-03-17T02:43:55.928Z,72.12
2023-03-17T02:46:23.249Z,71.16
2023-03-17T02:48:50.108Z,71.22
2023-03-17T02:51:16.729Z,71.49
2023-03-17T02:53:43.434Z,71.88
2023-03-17T02:56:10.513Z,71.93
2023-03-17T02:58:37.137Z,72.42
2023-03-17T03:01:04.264Z,74.03
2023-03-17T03:03:31.288Z,74.02
2023-03-17T03:05:59.199Z,72.38
2023-03-17T03:08:27.344Z,72.58
2023-03-17T03:10:55.195Z,72.68
2023-03-17T03:13:22.998Z,71.66
2023-03-17T03:15:50.333Z,72.70
2023-03-17T03:18:17.372Z,73.54
2023-03-17T03:20:45.013Z,75.14
2023-03-17T03:23:12.608Z,74.23
2023-03-17T03:25:39.679Z,74.99
2023-03-17T03:28:08.365Z,74.93
2023-03-17T03:30:36.549Z,74.74
2023-03-17T03:33:06.119Z,74.89
2023-03-17T03:35:33.075Z,75.29
2023-03-17T03:38:00.575Z,74.26
2023-03-17T03:40:27.375Z,75.11
2023-03-17T03:42:54.388Z,75.45
2023-03-17T03:45:21.477Z,76.98
2023-03-17T03:47:48.130Z,76.91
2023-03-17T03:50:14.968Z,76.67
2023-03-17T03:52:41.798Z,76.89
2023-03-17T03:55:09.280Z,79.12
2023-03-17T03:57:36.119Z,78.29
2023-03-17T04:00:05.245Z,79.54
2023-03-17T04:02:32.192Z,79.84
2023-03-17T04:04:58.953Z,80.03
2023-03-17T04:07:26.013Z,78.75
2023-03-17T04:09:52.811Z,79.66
2023-03-17T04:12:19.521Z,79.95
2023-03-17T04:14:46.389Z,80.64
2023-03-17T04:17:13.501Z,80.78
2023-03-17T04:19:40.639Z,81.69
2023-03-17T04:22:09.106Z,82.47
2023-03-17T04:24:35.966Z,82.55
2023-03-17T04:27:05.884Z,83.01
2023-03-17T04:29:32.902Z,82.30
2023-03-17T04:32:00.088Z,81.51
2023-03-17T04:34:27.513Z,82.63
2023-03-17T04:36:54.452Z,83.36
2023-03-17T04:39:21.115Z,82.75
2023-03-17T04:41:47.860Z,83.70
2023-03-17T04:44:15.654Z,83.71
2023-03-17T04:46:42.439Z,84.82
2023-03-17T04:49:09.716Z,85.04
2023-03-17T04:51:37.084Z,85.85
2023-03-17T04:54:04.010Z,85.47
2023-03-17T04:56:32.002Z,86.09
2023-03-17T04:58:59.087Z,85.55
2023-03-17T05:01:25.768Z,84.95
2023-03-17T05:03:52.792Z,84.46
2023-03-17T05:06:19.489Z,83.94
2023-03-17T05:08:46.220Z,84.35
2023-03-17T05:11:13.555Z,84.73
2023-03-17T05:13:43.774Z,84.42
2023-03-17T05:16:11.261Z,84.62
2023-03-17T05:18:38.507Z,83.40
2023-03-17T05:21:06.620Z,84.70
2023-03-17T05:23:34.728Z,84.87
2023-03-17T05:26:01.849Z,83.91
2023-03-17T05:28:28.682Z,84.94
2023-03-17T05:30:55.823Z,84.67
2023-03-17T05:33:23.252Z,84.45
2023-03-17T05:35:50.420Z,85.70
2023-03-17T05:38:17.348Z,85.02
2023-03-17T05:40:44.590Z,85.69
2023-03-17T05:43:11.496Z,85.42
2023-03-17T05:45:38.238Z,85.52
2023-03-17T05:48:05.074Z,84.70
2023-03-17T05:50:32.172Z,86.05
2023-03-17T05:52:59.200Z,84.15
2023-03-17T05:55:25.938Z,85.00
2023-03-17T05:57:52.744Z,85.13
2023-03-17T06:00:21.668Z,83.94
2023-03-17T06:02:48.544Z,83.75
2023-03-17T06:05:15.418Z,83.98
2023-03-17T06:07:52.872Z,84.52
2023-03-17T06:10:22.990Z,85.10
2023-03-17T06:12:49.812Z,83.65
2023-03-17T06:15:17.329Z,84.04
2023-03-17T06:17:44.450Z,84.55
2023-03-17T06:20:12.059Z,84.72
2023-03-17T06:22:46.292Z,84.14
2023-03-17T06:25:18.762Z,84.10
2023-03-17T06:34:59.992Z,82.68
2023-03-17T06:37:26.638Z,81.76
2023-03-17T06:39:53.539Z,80.53
2023-03-17T06:42:20.374Z,80.91
2023-03-17T06:44:47.402Z,79.74
2023-03-17T06:47:14.415Z,75.98
2023-03-17T06:49:41.307Z,75.47
2023-03-17T06:52:08.911Z,74.11
2023-03-17T06:54:36.790Z,73.04
2023-03-17T06:57:03.687Z,72.12
2023-03-17T06:59:30.915Z,70.85
2023-03-17T07:01:59.462Z,70.76
2023-03-17T07:04:26.249Z,69.87
2023-03-17T07:06:52.999Z,69.79
2023-03-17T07:09:19.935Z,67.18
2023-03-17T07:11:46.899Z,67.47
2023-03-17T07:14:14.047Z,67.06
2023-03-17T07:16:40.734Z,66.43
2023-03-17T07:19:07.624Z,67.18
2023-03-17T07:21:34.555Z,66.43
2023-03-17T07:24:01.812Z,66.32
2023-03-17T07:26:28.852Z,67.58
2023-03-17T07:28:56.192Z,68.43
2023-03-17T07:31:23.600Z,67.83
2023-03-17T07:33:51.086Z,65.34
2023-03-17T07:36:17.929Z,65.01
2023-03-17T07:38:44.577Z,65.68
2023-03-17T07:41:11.408Z,64.30
2023-03-17T07:43:38.765Z,65.12
2023-03-17T07:46:06.606Z,65.18
2023-03-17T07:48:33.692Z,65.38
2023-03-17T07:51:00.758Z,66.27
2023-03-17T07:53:27.473Z,64.60
2023-03-17T07:55:54.585Z,63.66
2023-03-17T07:58:22.036Z,63.21
2023-03-17T08:00:49.115Z,61.57
2023-03-17T08:03:15.970Z,62.19
2023-03-17T08:05:43.093Z,61.69
2023-03-17T08:08:10.852Z,61.22
2023-03-17T08:10:37.502Z,59.42
2023-03-17T08:13:04.830Z,59.18
2023-03-17T08:15:31.656Z,60.28
2023-03-17T08:17:58.302Z,59.11
2023-03-17T08:20:25.243Z,58.63
2023-03-17T08:22:51.947Z,58.53
2023-03-17T08:25:18.594Z,58.99
2023-03-17T08:27:45.242Z,59.23
2023-03-17T08:30:13.133Z,58.53
2023-03-17T08:32:39.899Z,57.46
2023-03-17T08:35:07.016Z,56.91
2023-03-17T08:37:33.853Z,58.48
2023-03-17T08:40:01.524Z,56.97
2023-03-17T08:42:28.311Z,57.11
2023-03-17T08:44:55.114Z,57.49
2023-03-17T08:47:22.021Z,57.17
2023-03-17T08:49:48.709Z,57.59
2023-03-17T08:52:16.576Z,55.72
2023-03-17T08:54:43.465Z,57.15
2023-03-17T08:57:10.140Z,55.61
2023-03-17T08:59:39.362Z,55.35
2023-03-17T09:02:06.003Z,55.21
2023-03-17T09:04:32.768Z,54.64
2023-03-17T09:07:03.657Z,53.43
2023-03-17T09:09:31.374Z,53.10
2023-03-17T09:11:58.086Z,53.24
2023-03-17T09:14:25.203Z,52.42
2023-03-17T09:16:52.942Z,53.93
2023-03-17T09:19:19.754Z,52.76
2023-03-17T09:21:47.554Z,53.79
2023-03-17T09:24:14.605Z,53.36
2023-03-17T09:26:41.895Z,52.87
2023-03-17T09:29:08.632Z,52.74
2023-03-17T09:31:39.153Z,52.00
2023-03-17T09:34:06.008Z,53.77
2023-03-17T09:36:33.717Z,52.16
2023-03-17T09:39:01.320Z,54.54
2023-03-17T09:41:51.678Z,51.86
2023-03-17T09:44:40.547Z,51.39
2023-03-17T09:47:37.054Z,52.26
2023-03-17T09:50:11.240Z,51.70
2023-03-17T09:52:38.851Z,50.83
2023-03-17T09:55:08.793Z,51.48
2023-03-17T09:57:38.185Z,51.24
2023-03-17T10:00:19.164Z,51.58
2023-03-17T10:02:46.408Z,52.08
2023-03-17T10:05:42.568Z,53.42
2023-03-17T10:08:34.046Z,52.71
2023-03-17T10:11:31.630Z,51.91
2023-03-17T10:14:03.768Z,51.60
2023-03-17T10:16:50.433Z,51.91
2023-03-17T10:19:22.434Z,51.19
2023-03-17T10:21:54.813Z,52.18
2023-03-17T10:24:22.440Z,51.11
2023-03-17T10:26:50.519Z,51.81
2023-03-17T10:29:24.095Z,52.91
2023-03-17T10:31:52.355Z,51.05
2023-03-17T10:34:20.422Z,52.67
2023-03-17T10:36:54.569Z,51.32
2023-03-17T10:39:24.193Z,50.80
2023-03-17T10:42:00.557Z,50.43
2023-03-17T10:44:39.702Z,52.63
2023-03-17T10:47:07.488Z,51.41
2023-03-17T10:49:37.928Z,51.39
2023-03-17T10:52:08.574Z,50.19
2023-03-17T10:54:37.208Z,50.21
2023-03-17T10:57:07.685Z,51.64
2023-03-17T10:59:44.549Z,50.66
2023-03-17T11:02:43.520Z,48.95
2023-03-17T11:05:23.220Z,48.82
2023-03-17T11:07:50.702Z,50.01
2023-03-17T11:10:24.061Z,49.13
2023-03-17T11:13:02.233Z,48.97
2023-03-17T11:15:34.202Z,49.06
2023-03-17T11:18:04.411Z,48.21
2023-03-17T11:20:48.564Z,48.44
2023-03-17T11:23:52.456Z,48.80
2023-03-17T11:26:48.953Z,49.04
2023-03-17T11:29:58.425Z,50.20
2023-03-17T11:32:29.624Z,50.45
2023-03-17T11:35:00.454Z,50.27
2023-03-17T11:37:53.309Z,50.18
2023-03-17T11:40:22.692Z,50.24
2023-03-17T11:43:23.353Z,50.68
2023-03-17T11:45:59.092Z,50.32
2023-03-17T11:49:01.465Z,50.81
2023-03-17T11:51:37.799Z,51.10
2023-03-17T11:54:10.893Z,50.88
2023-03-17T11:56:42.240Z,52.01
2023-03-17T11:59:17.980Z,50.96
2023-03-17T12:01:54.931Z,51.31
2023-03-17T12:04:51.528Z,51.67
2023-03-17T12:07:22.650Z,50.93
2023-03-17T12:10:24.272Z,50.62
2023-03-17T12:12:54.934Z,50.23
2023-03-17T12:15:29.695Z,50.49
2023-03-17T12:17:59.870Z,50.87
2023-03-17T12:20:33.507Z,50.52
2023-03-17T12:23:52.690Z,50.05
2023-03-17T12:26:32.187Z,49.98
2023-03-17T12:29:01.145Z,50.43
2023-03-17T12:31:34.388Z,49.66
2023-03-17T12:34:09.074Z,50.26
2023-03-17T12:36:38.394Z,49.61
2023-03-17T12:39:14.144Z,50.42
2023-03-17T12:42:18.249Z,51.10
2023-03-17T12:45:16.065Z,49.96
2023-03-17T12:48:15.437Z,51.17
2023-03-17T12:51:08.910Z,49.59
2023-03-17T12:53:40.726Z,50.33
2023-03-17T12:56:10.467Z,50.37
2023-03-17T12:58:44.419Z,51.01
2023-03-17T13:01:25.787Z,51.59
2023-03-17T13:03:59.120Z,50.85
2023-03-17T13:06:26.135Z,50.82
2023-03-17T13:08:53.462Z,51.02
2023-03-17T13:11:46.660Z,51.38
2023-03-17T13:14:39.684Z,51.98
2023-03-17T13:17:38.782Z,52.29
2023-03-17T13:20:13.348Z,51.63
2023-03-17T13:23:11.046Z,52.63
2023-03-17T13:26:01.136Z,52.74
2023-03-17T13:28:42.157Z,52.52
2023-03-17T13:31:10.077Z,53.19
2023-03-17T13:33:42.597Z,52.17
2023-03-17T13:36:23.072Z,53.31
2023-03-17T13:39:18.709Z,53.35
2023-03-17T13:42:31.960Z,53.96
2023-03-17T13:45:17.634Z,53.91
2023-03-17T13:47:46.102Z,53.80
2023-03-17T13:50:31.091Z,53.71
2023-03-17T13:53:02.567Z,54.05
2023-03-17T13:55:35.271Z,53.87
2023-03-17T13:58:33.460Z,53.68
2023-03-17T14:01:04.069Z,54.24
2023-03-17T14:03:44.033Z,54.09
2023-03-17T14:06:12.475Z,54.95
2023-03-17T14:08:51.686Z,54.63
2023-03-17T14:11:41.591Z,53.53
2023-03-17T14:14:26.124Z,53.43
2023-03-17T14:17:15.818Z,52.90
2023-03-17T14:20:00.097Z,53.29
2023-03-17T14:28:42.345Z,51.79
2023-03-17T14:31:21.972Z,52.25
2023-03-17T14:33:48.984Z,52.09
2023-03-17T14:36:16.246Z,51.99
2023-03-17T14:39:19.016Z,52.59
2023-03-17T14:41:45.803Z,52.74
2023-03-17T14:44:12.604Z,52.90
2023-03-17T14:46:41.355Z,53.63
2023-03-17T14:49:21.366Z,53.51
2023-03-17T14:51:50.317Z,53.99
2023-03-17T14:54:20.433Z,53.45
2023-03-17T14:56:49.335Z,54.47
2023-03-17T14:59:30.157Z,54.62
2023-03-17T15:01:58.854Z,54.29
2023-03-17T15:04:29.892Z,55.05
2023-03-17T15:07:01.601Z,54.59
2023-03-17T15:09:36.944Z,54.56
2023-03-17T15:12:19.279Z,54.55
2023-03-17T15:14:47.010Z,55.07
2023-03-17T15:17:19.433Z,54.95
2023-03-17T15:19:49.533Z,54.61
2023-03-17T15:22:30.453Z,55.38
2023-03-17T15:25:00.535Z,55.42
2023-03-17T15:27:27.946Z,55.55
2023-03-17T15:29:54.663Z,55.91
2023-03-17T15:32:23.942Z,56.03
2023-03-17T15:34:52.985Z,56.26
2023-03-17T15:37:25.637Z,56.55
2023-03-17T15:39:53.246Z,56.63
2023-03-17T15:42:21.927Z,57.05
2023-03-17T15:44:48.592Z,56.20
2023-03-17T15:47:17.469Z,56.03
2023-03-17T15:49:45.179Z,55.96
2023-03-17T15:52:26.506Z,54.88
2023-03-17T15:54:55.015Z,54.57
2023-03-17T15:57:22.120Z,55.46
2023-03-17T15:59:49.156Z,55.66
2023-03-17T16:02:25.636Z,55.78
2023-03-17T16:04:52.694Z,56.49
2023-03-17T16:07:19.688Z,55.96
2023-03-17T16:09:46.477Z,56.11
2023-03-17T16:12:13.965Z,56.70
2023-03-17T16:14:41.098Z,56.34
2023-03-17T16:17:17.709Z,56.43
2023-03-17T16:19:44.840Z,56.00
2023-03-17T16:22:34.888Z,56.72
2023-03-17T16:25:01.747Z,56.63
2023-03-17T16:27:28.557Z,56.72
2023-03-17T16:29:55.283Z,55.96
2023-03-17T16:32:22.193Z,56.07
2023-03-17T16:34:48.950Z,55.84
2023-03-17T16:37:16.475Z,55.31
2023-03-17T16:39:43.540Z,56.24
2023-03-17T16:42:23.424Z,55.98
2023-03-17T16:44:50.734Z,56.26
2023-03-17T16:47:17.731Z,55.90
2023-03-17T16:49:44.512Z,55.96
2023-03-17T16:52:12.288Z,55.63
2023-03-17T16:54:38.979Z,55.62
2023-03-17T16:57:07.864Z,55.62
2023-03-17T16:59:34.782Z,55.82
2023-03-17T17:02:02.277Z,55.94
2023-03-17T17:04:29.250Z,55.67
2023-03-17T17:06:56.983Z,56.57
2023-03-17T17:09:24.425Z,56.72
2023-03-17T17:11:51.068Z,56.61
2023-03-17T17:14:17.940Z,56.45
2023-03-17T17:16:44.732Z,56.79
2023-03-17T17:19:16.794Z,56.83
2023-03-17T17:21:44.135Z,55.94
2023-03-17T17:24:12.701Z,54.34
2023-03-17T17:26:40.002Z,54.31
2023-03-17T17:29:06.809Z,54.08
2023-03-17T17:31:33.654Z,54.21
2023-03-17T17:34:00.470Z,54.27
2023-03-17T17:36:27.348Z,55.08
2023-03-17T17:38:54.242Z,55.82
2023-03-17T17:41:23.969Z,55.62
2023-03-17T17:43:50.684Z,55.96
2023-03-17T17:46:20.208Z,54.80
2023-03-17T17:48:47.438Z,55.72
2023-03-17T17:51:14.400Z,57.67
2023-03-17T17:53:41.315Z,58.02
2023-03-17T17:56:08.496Z,58.60
2023-03-17T17:58:35.220Z,58.95
2023-03-17T18:01:03.676Z,58.90
2023-03-17T18:03:32.139Z,60.63
2023-03-17T18:06:01.137Z,61.39
2023-03-17T18:08:28.125Z,61.76
2023-03-17T18:10:56.815Z,62.47
2023-03-17T18:13:23.842Z,62.40
2023-03-17T18:15:50.697Z,64.15
2023-03-17T18:18:17.859Z,64.11
2023-03-17T18:20:47.385Z,65.09
2023-03-17T18:23:16.234Z,65.85
2023-03-17T18:25:43.073Z,66.01
2023-03-17T18:28:09.779Z,66.79
2023-03-17T18:30:36.546Z,68.70
2023-03-17T18:33:09.668Z,68.27
2023-03-17T18:35:36.763Z,68.88
2023-03-17T18:38:03.529Z,68.87
2023-03-17T18:40:30.290Z,69.71
2023-03-17T18:42:57.129Z,70.96
2023-03-17T18:45:24.029Z,70.32
2023-03-17T18:47:50.836Z,70.25
2023-03-17T18:50:18.496Z,71.88
2023-03-17T18:52:46.072Z,71.44
2023-03-17T18:55:13.808Z,71.90
2023-03-17T18:57:43.134Z,72.68
2023-03-17T19:00:12.291Z,72.93
2023-03-17T19:02:39.170Z,73.30
2023-03-17T19:05:06.666Z,73.09
2023-03-17T19:07:33.564Z,74.10
2023-03-17T19:10:00.478Z,74.97
2023-03-17T19:12:27.596Z,75.55
2023-03-17T19:14:54.352Z,75.68
2023-03-17T19:17:21.118Z,75.78
2023-03-17T19:19:50.457Z,75.57
2023-03-17T19:22:17.160Z,75.43
2023-03-17T19:24:44.400Z,76.34
2023-03-17T19:27:11.207Z,76.24
2023-03-17T19:29:37.869Z,76.81
2023-03-17T19:32:04.630Z,76.71
2023-03-17T19:34:31.387Z,77.69
2023-03-17T19:36:58.846Z,77.60
2023-03-17T19:39:27.725Z,77.96
2023-03-17T19:41:55.442Z,78.08
2023-03-17T19:44:22.566Z,79.82
2023-03-17T19:46:50.290Z,79.90
2023-03-17T19:49:18.021Z,78.36
2023-03-17T19:51:47.745Z,79.29
2023-03-17T19:54:14.636Z,79.02
2023-03-17T19:56:41.690Z,79.13
2023-03-17T19:59:09.170Z,79.07
2023-03-17T20:01:38.157Z,79.72
2023-03-17T20:04:07.173Z,79.48
2023-03-17T20:06:34.859Z,79.24
2023-03-17T20:09:04.503Z,79.77
2023-03-17T20:11:34.159Z,81.46
2023-03-17T20:14:02.052Z,82.24
2023-03-17T20:16:32.109Z,82.33
2023-03-17T20:18:59.543Z,82.75
2023-03-17T20:21:26.653Z,81.71
2023-03-17T20:23:53.667Z,80.33
2023-03-17T20:26:29.078Z,81.63
2023-03-17T20:28:56.659Z,82.70
2023-03-17T20:31:23.751Z,82.99
2023-03-17T20:33:50.712Z,83.14
2023-03-17T20:36:17.480Z,83.20
2023-03-17T20:38:44.115Z,83.51
2023-03-17T20:41:13.885Z,83.92
2023-03-17T20:43:40.970Z,83.13
2023-03-17T20:46:09.261Z,82.79
2023-03-17T20:48:37.359Z,83.64
2023-03-17T20:51:05.816Z,83.79
2023-03-17T20:53:34.486Z,84.25
2023-03-17T20:56:01.207Z,85.35
2023-03-17T20:58:28.020Z,84.79
2023-03-17T21:00:55.107Z,86.37
2023-03-17T21:03:21.940Z,86.79
2023-03-17T21:05:48.553Z,86.54
2023-03-17T21:08:15.181Z,86.60
2023-03-17T21:10:42.010Z,87.24
2023-03-17T21:13:09.140Z,87.37
2023-03-17T21:15:36.446Z,87.57
2023-03-17T21:18:03.361Z,87.61
2023-03-17T21:20:30.400Z,87.50
2023-03-17T21:22:57.609Z,87.67
2023-03-17T21:25:24.252Z,87.21
2023-03-17T21:27:51.036Z,86.25
2023-03-17T21:30:17.850Z,86.52
2023-03-17T21:32:44.695Z,86.82
2023-03-17T21:35:11.952Z,87.24
2023-03-17T21:37:38.631Z,87.17
2023-03-17T21:40:06.999Z,87.33
2023-03-17T21:42:34.722Z,87.69
2023-03-17T21:45:01.377Z,87.61
2023-03-17T21:47:30.225Z,87.91
2023-03-17T21:49:58.219Z,87.97
2023-03-17T21:52:25.433Z,88.51
2023-03-17T21:54:52.132Z,88.96
2023-03-17T21:57:18.953Z,89.38
2023-03-17T21:59:45.760Z,89.10
2023-03-17T22:02:12.912Z,89.50
2023-03-17T22:04:41.777Z,89.36
2023-03-17T22:07:08.725Z,89.13
2023-03-17T22:09:36.307Z,89.46
2023-03-17T22:12:04.424Z,91.25
2023-03-17T22:14:31.400Z,90.98
2023-03-17T22:16:58.069Z,90.58
2023-03-17T22:19:24.836Z,90.21
2023-03-17T22:21:51.933Z,90.04
2023-03-17T22:24:19.000Z,90.46
2023-03-17T22:26:45.953Z,90.11
2023-03-17T22:29:12.649Z,90.24
2023-03-17T22:31:39.883Z,90.38
2023-03-17T22:34:06.780Z,90.64
2023-03-17T22:36:33.683Z,91.76
2023-03-17T22:39:00.427Z,91.28
2023-03-17T22:41:29.465Z,91.18
2023-03-17T22:43:56.256Z,91.71
2023-03-17T22:46:23.741Z,92.01
2023-03-17T22:48:51.983Z,92.88
2023-03-17T22:51:21.629Z,92.45
2023-03-17T22:53:48.439Z,92.75
2023-03-17T22:56:16.602Z,92.28
2023-03-17T22:58:43.905Z,92.48
2023-03-17T23:01:13.704Z,92.89
2023-03-17T23:03:41.162Z,92.57
2023-03-17T23:06:08.822Z,93.39
2023-03-17T23:08:37.477Z,92.88
2023-03-17T23:11:10.789Z,93.08
2023-03-17T23:13:38.075Z,91.73
2023-03-17T23:16:05.158Z,92.89
2023-03-17T23:18:34.042Z,93.16
2023-03-17T23:21:01.762Z,93.17
2023-03-17T23:23:28.695Z,93.90
2023-03-17T23:25:55.285Z,94.28
2023-03-17T23:28:22.208Z,94.11
2023-03-17T23:30:48.967Z,94.11
2023-03-17T23:33:17.641Z,93.51
2023-03-17T23:35:46.235Z,93.02
2023-03-17T23:38:13.217Z,93.99
2023-03-17T23:40:39.937Z,94.09
2023-03-17T23:43:06.779Z,93.67
2023-03-17T23:45:35.213Z,93.92
2023-03-17T23:48:03.096Z,93.92
2023-03-17T23:50:30.423Z,94.07
2023-03-17T23:52:57.276Z,94.45
2023-03-17T23:55:24.396Z,95.15
2023-03-17T23:57:51.044Z,95.70
